Detall de PIREP

Printer-friendly versionPDF version

[2017/05/27 15:02:00]
Flight IATA:CT1062
Pilot Number:012
Company ICAO:CAT
Aircraft Type:DC85/A
PAX:132
Aircraft Registration:PAX
Departing Airport: LICJ
Destination Airport: LTBA
Alternate Airport:LTBZ
Online: VATSIM
Route:PAL L869 LATAN UL869 KRK UM600 TSL UM603 GELBU
Flight Level:F360
No Slew and time accel
No pause
Crash detect
Detect pilot in Cockpit between each 30 and 45 minutes
15:02 Zero fuel Weight: 179286 Lbs, Fuel Weight: 43377 Lbs
15:02 VATSIM:LICJ 271450Z 03010KT CAVOK 22/17 Q1018
15:02 VATSIM:LTBA 271420Z 01011KT 350V060 9999 SCT030 BKN100 21/13 Q1013 NOSIG
15:02 ALMOGAVERS ROUTE
15:06 Parking Brakes off
15:14 Take-off
15:14 Take off Weight: 221393 Lbs
15:14 Wind: 027º @ 010 Knots Heading: 064º
15:14 POS N38º 10´ 51´´ E013º 06´ 21´´
15:14 Gear Up: 168 Knots
15:14 Flaps:2 at 168 Knots
15:15 Flaps:1 at 200 Knots
15:15 Flaps:0 at 202 Knots
15:28 TOC
15:28 Fuel Weight: 37322 Lb
15:29 Wind:330º@021 Knots Heading: 057º Ground Speed: 394 Knots Altitude 35954 ft
15:44 Wind:339º@034 Knots Heading: 070º Ground Speed: 491 Knots Altitude 36092 ft
15:59 Wind:347º@040 Knots Heading: 074º Ground Speed: 490 Knots Altitude 36013 ft
16:14 Wind:342º@028 Knots Heading: 061º Ground Speed: 484 Knots Altitude 36076 ft
16:29 Wind:339º@032 Knots Heading: 072º Ground Speed: 486 Knots Altitude 35990 ft
16:40 TOD
16:40 Fuel Weight: 21901 Lb
16:44 Wind:215º@015 Knots Heading: 084º Ground Speed: 453 Knots Altitude 28418 ft
16:55 Flaps:1 at 217 Knots
16:59 Wind:046º@008 Knots Heading: 103º Ground Speed: 224 Knots Altitude 6013 ft
17:04 Flaps:2 at 179 Knots
17:07 Gear Down: 186 Knots
17:08 Flaps:3 at 135 Knots
17:09 Flaps:4 at 160 Knots
17:11 Flaps:5 at 156 Knots
17:14 Wind:013º@013 Knots Heading: 054º Ground Speed: 140 Knots Altitude 666 ft
17:14 TouchDown:Rate -439 ft/min Speed: 122 Knots
17:15 VATSIM:LTBA 271650Z 03010KT 340V090 9999 SCT025 20/12 Q1014 NOSIG
17:15 Land
17:15 Wind:014º@013 Knots
17:15 Heading: 058º
17:15 Flight Duration: 02:01
17:15 Landing Weight: 196853 Lbs
17:15 POS N40º 58´ 21´´ E028º 49´ 30´´
17:17 Parking brakes on
17:17 Block to Block Duration: 02:11
17:17 Final Fuel: 17376 Lbls
17:17 Spent Fuel: 26000 Lbls
17:17 Flight Length: 819 NM
17:17 TOD Land Length: 155 NM

Exportar CSV

Powered by Drupal - Modified by Danger4k